createdAt,value
2018-04-27T00:02:16.984Z,7.00
2018-04-27T00:04:45.229Z,6.90
2018-04-27T00:07:13.473Z,6.80
2018-04-27T00:09:42.485Z,6.70
2018-04-27T00:12:11.499Z,6.70
2018-04-27T00:14:39.746Z,6.70
2018-04-27T00:17:08.761Z,6.60
2018-04-27T00:19:37.005Z,6.60
2018-04-27T00:22:06.025Z,6.50
2018-04-27T00:24:34.276Z,6.50
2018-04-27T00:27:03.293Z,6.50
2018-04-27T00:29:31.537Z,6.40
2018-04-27T00:31:59.791Z,6.50
2018-04-27T00:34:28.085Z,6.50
2018-04-27T00:36:56.277Z,6.50
2018-04-27T00:39:25.308Z,6.50
2018-04-27T00:41:53.557Z,6.40
2018-04-27T00:44:21.797Z,6.50
2018-04-27T00:46:50.057Z,6.50
2018-04-27T00:49:18.304Z,6.50
2018-04-27T00:51:46.546Z,6.40
2018-04-27T00:54:15.561Z,6.60
2018-04-27T00:56:43.802Z,6.60
2018-04-27T00:59:12.824Z,6.50
2018-04-27T01:01:41.069Z,6.50
2018-04-27T01:04:09.319Z,6.50
2018-04-27T01:06:37.569Z,6.30
2018-04-27T01:09:05.818Z,6.20
2018-04-27T01:11:34.072Z,6.10
2018-04-27T01:14:02.325Z,6.10
2018-04-27T01:16:30.563Z,6.10
2018-04-27T01:18:58.813Z,6.20
2018-04-27T01:21:27.064Z,6.20
2018-04-27T01:23:55.312Z,6.20
2018-04-27T01:26:23.562Z,6.10
2018-04-27T01:28:51.808Z,6.10
2018-04-27T01:31:20.820Z,6.00
2018-04-27T01:33:49.069Z,5.90
2018-04-27T01:36:18.078Z,5.90
2018-04-27T01:38:47.102Z,6.00
2018-04-27T01:41:15.341Z,6.00
2018-04-27T01:43:44.364Z,5.90
2018-04-27T01:46:12.622Z,5.90
2018-04-27T01:48:40.905Z,5.90
2018-04-27T01:51:09.150Z,5.90
2018-04-27T01:53:37.407Z,5.90
2018-04-27T01:56:05.649Z,5.90
2018-04-27T01:58:33.902Z,5.80
2018-04-27T02:01:02.152Z,5.70
2018-04-27T02:03:31.168Z,5.60
2018-04-27T02:05:59.417Z,5.50
2018-04-27T02:08:28.428Z,5.60
2018-04-27T02:10:56.688Z,5.50
2018-04-27T02:13:24.941Z,5.60
2018-04-27T02:15:53.190Z,5.60
2018-04-27T02:18:21.433Z,5.70
2018-04-27T02:20:50.448Z,5.40
2018-04-27T02:23:18.686Z,5.40
2018-04-27T02:25:47.705Z,5.30
2018-04-27T02:28:15.960Z,5.30
2018-04-27T02:30:44.981Z,5.20
2018-04-27T02:33:13.232Z,5.20
2018-04-27T02:35:42.254Z,5.20
2018-04-27T02:38:10.504Z,5.20
2018-04-27T02:40:38.768Z,5.30
2018-04-27T02:43:07.798Z,5.10
2018-04-27T02:45:36.066Z,5.10
2018-04-27T02:48:04.317Z,5.10
2018-04-27T02:50:33.339Z,5.00
2018-04-27T02:53:01.602Z,5.00
2018-04-27T02:55:29.854Z,5.00
2018-04-27T02:57:58.873Z,4.90
2018-04-27T03:00:27.129Z,4.90
2018-04-27T03:02:56.149Z,4.70
2018-04-27T03:05:24.408Z,4.70
2018-04-27T03:07:52.661Z,4.70
2018-04-27T03:10:21.669Z,4.70
2018-04-27T03:12:50.685Z,4.70
2018-04-27T03:15:18.934Z,4.70
2018-04-27T03:17:47.953Z,4.70
2018-04-27T03:20:16.201Z,4.60
2018-04-27T03:22:45.228Z,4.60
2018-04-27T03:25:13.478Z,4.60
2018-04-27T03:27:42.498Z,4.60
2018-04-27T03:30:10.756Z,4.50
2018-04-27T03:32:39.004Z,4.50
2018-04-27T03:35:08.017Z,4.60
2018-04-27T03:37:36.280Z,4.60
2018-04-27T03:40:05.301Z,4.50
2018-04-27T03:42:33.556Z,4.50
2018-04-27T03:45:02.574Z,4.40
2018-04-27T03:47:30.825Z,4.40
2018-04-27T03:49:59.845Z,4.40
2018-04-27T03:52:28.115Z,4.30
2018-04-27T03:54:56.377Z,4.30
2018-04-27T03:57:24.642Z,4.30
2018-04-27T04:00:11.280Z,4.30
2018-04-27T04:02:57.510Z,4.30
2018-04-27T04:05:29.280Z,4.40
2018-04-27T04:07:57.527Z,4.40
2018-04-27T04:10:25.785Z,4.40
2018-04-27T04:12:54.030Z,4.50
2018-04-27T04:15:23.048Z,4.60
2018-04-27T04:17:51.291Z,4.60
2018-04-27T04:20:20.305Z,4.70
2018-04-27T04:22:48.541Z,4.70
2018-04-27T04:25:17.560Z,4.80
2018-04-27T04:27:46.572Z,4.80
2018-04-27T04:30:14.828Z,4.70
2018-04-27T04:32:43.840Z,4.90
2018-04-27T04:35:12.097Z,4.90
2018-04-27T04:37:41.113Z,5.00
2018-04-27T04:40:09.363Z,4.90
2018-04-27T04:42:38.370Z,5.10
2018-04-27T04:45:06.712Z,5.10
2018-04-27T04:47:35.644Z,5.20
2018-04-27T04:50:03.904Z,5.20
2018-04-27T04:52:32.930Z,5.10
2018-04-27T04:55:01.186Z,5.10
2018-04-27T04:57:29.446Z,5.10
2018-04-27T04:59:58.460Z,4.70
2018-04-27T05:02:26.740Z,4.70
2018-04-27T05:04:54.972Z,4.70
2018-04-27T05:07:23.221Z,4.60
2018-04-27T05:09:51.465Z,4.50
2018-04-27T05:12:19.737Z,4.60
2018-04-27T05:14:47.981Z,4.60
2018-04-27T05:17:16.233Z,4.60
2018-04-27T05:19:44.485Z,4.60
2018-04-27T05:22:12.735Z,4.70
2018-04-27T05:24:40.985Z,4.80
2018-04-27T05:27:10.010Z,4.90
2018-04-27T05:29:38.324Z,4.90
2018-04-27T05:32:07.277Z,4.90
2018-04-27T05:34:35.520Z,4.90
2018-04-27T05:37:04.539Z,5.20
2018-04-27T05:39:32.785Z,5.10
2018-04-27T05:42:01.032Z,5.20
2018-04-27T05:44:29.278Z,5.30
2018-04-27T05:46:57.542Z,5.40
2018-04-27T05:49:25.795Z,5.50
2018-04-27T05:51:54.817Z,5.80
2018-04-27T05:54:23.062Z,5.80
2018-04-27T05:56:52.067Z,6.10
2018-04-27T05:59:21.092Z,6.20
2018-04-27T06:01:49.360Z,6.20
2018-04-27T06:04:17.612Z,6.40
2018-04-27T06:06:46.621Z,6.30
2018-04-27T06:09:14.880Z,6.30
2018-04-27T06:11:43.884Z,6.40
2018-04-27T06:14:12.137Z,6.40
2018-04-27T06:16:41.153Z,6.60
2018-04-27T06:19:09.409Z,6.60
2018-04-27T06:21:38.420Z,7.10
2018-04-27T06:24:06.672Z,7.10
2018-04-27T06:26:35.677Z,7.30
2018-04-27T06:29:04.697Z,7.40
2018-04-27T06:31:32.944Z,7.40
2018-04-27T06:34:01.960Z,7.60
2018-04-27T06:36:30.211Z,7.60
2018-04-27T06:38:59.221Z,7.80
2018-04-27T06:41:27.461Z,7.80
2018-04-27T06:43:55.708Z,7.80
2018-04-27T06:46:23.954Z,7.80
2018-04-27T06:48:52.205Z,8.00
2018-04-27T06:51:21.213Z,8.40
2018-04-27T06:53:49.465Z,8.40
2018-04-27T06:56:17.705Z,8.40
2018-04-27T06:58:45.953Z,8.60
2018-04-27T07:01:14.218Z,8.70
2018-04-27T07:03:42.462Z,9.00
2018-04-27T07:06:10.705Z,9.20
2018-04-27T07:08:38.954Z,9.20
2018-04-27T07:11:07.204Z,9.10
2018-04-27T07:13:36.216Z,9.30
2018-04-27T07:16:04.465Z,9.30
2018-04-27T07:18:33.473Z,9.50
2018-04-27T07:21:01.737Z,9.50
2018-04-27T07:23:29.986Z,9.60
2018-04-27T07:25:58.273Z,9.80
2018-04-27T07:28:26.501Z,10.00
2018-04-27T07:30:54.758Z,10.00
2018-04-27T07:33:23.013Z,10.10
2018-04-27T07:35:52.033Z,10.40
2018-04-27T07:38:20.280Z,10.30
2018-04-27T07:40:49.301Z,10.60
2018-04-27T07:43:17.556Z,10.60
2018-04-27T07:45:46.577Z,10.90
2018-04-27T07:48:14.841Z,10.90
2018-04-27T07:50:43.097Z,11.10
2018-04-27T07:53:12.113Z,11.00
2018-04-27T07:55:40.370Z,11.00
2018-04-27T07:58:09.396Z,11.20
2018-04-27T08:00:37.678Z,11.10
2018-04-27T08:03:05.940Z,11.20
2018-04-27T08:05:34.201Z,11.40
2018-04-27T08:08:02.461Z,11.40
2018-04-27T08:10:31.494Z,11.30
2018-04-27T08:12:59.753Z,11.30
2018-04-27T08:15:28.002Z,11.20
2018-04-27T08:17:57.037Z,11.70
2018-04-27T08:20:29.929Z,11.70
2018-04-27T08:22:58.903Z,11.90
2018-04-27T08:25:30.720Z,12.20
2018-04-27T08:27:58.985Z,12.30
2018-04-27T08:30:27.233Z,12.40
2018-04-27T08:32:55.498Z,12.60
2018-04-27T08:35:23.748Z,12.70
2018-04-27T08:37:52.002Z,12.80
2018-04-27T08:40:21.028Z,12.50
2018-04-27T08:42:49.281Z,12.50
2018-04-27T08:45:18.312Z,13.20
2018-04-27T08:47:46.562Z,13.20
2018-04-27T08:50:14.813Z,13.40
2018-04-27T08:52:43.842Z,13.10
2018-04-27T08:55:12.106Z,13.00
2018-04-27T08:57:40.366Z,13.20
2018-04-27T09:00:08.626Z,13.40
2018-04-27T09:02:36.882Z,13.50
2018-04-27T09:05:05.148Z,13.70
2018-04-27T09:07:33.399Z,13.90
2018-04-27T09:10:01.672Z,13.50
2018-04-27T09:12:29.929Z,13.80
2018-04-27T09:14:58.189Z,13.80
2018-04-27T09:17:27.211Z,13.60
2018-04-27T09:19:55.469Z,13.60
2018-04-27T09:22:24.494Z,13.90
2018-04-27T09:24:52.749Z,13.90
2018-04-27T09:27:21.006Z,14.20
2018-04-27T09:29:49.264Z,14.00
2018-04-27T09:32:17.589Z,13.90
2018-04-27T09:34:45.774Z,14.10
2018-04-27T09:37:14.032Z,13.70
2018-04-27T09:39:42.303Z,14.10
2018-04-27T09:42:10.557Z,14.60
2018-04-27T09:44:38.879Z,14.70
2018-04-27T09:47:07.142Z,14.90
2018-04-27T09:49:35.393Z,14.50
2018-04-27T09:52:03.659Z,14.40
2018-04-27T09:54:31.908Z,14.50
2018-04-27T09:57:00.216Z,14.70
2018-04-27T09:59:29.229Z,14.90
2018-04-27T10:01:57.485Z,14.80
2018-04-27T10:04:26.498Z,15.20
2018-04-27T10:06:54.762Z,15.20
2018-04-27T10:09:23.781Z,14.80
2018-04-27T10:11:52.041Z,14.80
2018-04-27T10:14:20.293Z,15.10
2018-04-27T10:16:48.549Z,15.00
2018-04-27T10:19:16.810Z,15.00
2018-04-27T10:21:45.062Z,15.10
2018-04-27T10:24:13.311Z,15.40
2018-04-27T10:26:42.327Z,16.10
2018-04-27T10:29:10.579Z,16.10
2018-04-27T10:31:39.611Z,15.80
2018-04-27T10:34:07.862Z,15.80
2018-04-27T10:36:36.165Z,15.60
2018-04-27T10:39:05.166Z,15.30
2018-04-27T10:41:33.425Z,15.30
2018-04-27T10:44:01.682Z,15.60
2018-04-27T10:46:29.930Z,15.70
2018-04-27T10:48:58.952Z,15.70
2018-04-27T10:51:27.197Z,15.70
2018-04-27T10:53:56.225Z,15.70
2018-04-27T10:56:24.477Z,15.70
2018-04-27T10:58:52.736Z,15.90
2018-04-27T11:01:20.999Z,16.10
2018-04-27T11:03:49.247Z,16.00
2018-04-27T11:06:17.496Z,16.20
2018-04-27T11:08:45.763Z,16.60
2018-04-27T11:11:14.013Z,16.70
2018-04-27T11:13:42.269Z,16.80
2018-04-27T11:16:10.566Z,16.70
2018-04-27T11:18:38.782Z,16.70
2018-04-27T11:21:07.025Z,16.80
2018-04-27T11:23:36.060Z,17.00
2018-04-27T11:26:04.354Z,17.00
2018-04-27T11:28:33.332Z,17.10
2018-04-27T11:31:01.581Z,17.10
2018-04-27T11:33:29.836Z,16.90
2018-04-27T11:35:58.863Z,17.30
2018-04-27T11:38:27.116Z,17.30
2018-04-27T11:40:55.377Z,17.70
2018-04-27T11:43:23.635Z,18.20
2018-04-27T11:45:51.894Z,18.40
2018-04-27T11:48:20.146Z,17.80
2018-04-27T11:50:48.401Z,18.10
2018-04-27T11:53:16.728Z,17.80
2018-04-27T11:55:44.913Z,17.90
2018-04-27T11:58:13.164Z,17.90
2018-04-27T12:00:41.428Z,18.80
2018-04-27T12:03:09.677Z,19.20
2018-04-27T12:05:38.697Z,18.50
2018-04-27T12:08:06.953Z,18.50
2018-04-27T12:10:35.273Z,18.80
2018-04-27T12:13:04.237Z,19.50
2018-04-27T12:15:32.492Z,19.40
2018-04-27T12:18:00.737Z,19.70
2018-04-27T12:20:28.993Z,18.90
2018-04-27T12:22:57.249Z,19.00
2018-04-27T12:25:25.505Z,19.70
2018-04-27T12:27:53.782Z,19.40
2018-04-27T12:30:22.030Z,19.00
2018-04-27T12:32:51.049Z,19.20
2018-04-27T12:35:19.300Z,19.20
2018-04-27T12:37:48.313Z,20.10
2018-04-27T12:40:16.582Z,20.10
2018-04-27T12:42:44.833Z,20.50
2018-04-27T12:45:13.084Z,20.90
2018-04-27T12:47:41.338Z,19.90
2018-04-27T12:50:09.589Z,20.60
2018-04-27T12:52:37.850Z,20.00
2018-04-27T12:55:06.869Z,20.80
2018-04-27T12:57:35.121Z,20.80
2018-04-27T13:00:04.137Z,19.70
2018-04-27T13:02:32.395Z,19.70
2018-04-27T13:05:00.640Z,20.10
2018-04-27T13:07:28.901Z,20.00
2018-04-27T13:09:57.150Z,19.80
2018-04-27T13:12:25.409Z,20.40
2018-04-27T13:14:53.653Z,21.10
2018-04-27T13:17:22.674Z,21.40
2018-04-27T13:19:50.921Z,21.40
2018-04-27T13:22:19.173Z,20.80
2018-04-27T13:24:47.425Z,20.40
2018-04-27T13:27:15.678Z,20.40
2018-04-27T13:29:43.922Z,20.00
2018-04-27T13:32:12.958Z,20.30
2018-04-27T13:34:41.209Z,20.30
2018-04-27T13:37:10.219Z,20.60
2018-04-27T13:39:38.473Z,20.50
2018-04-27T13:42:07.496Z,20.70
2018-04-27T13:44:35.749Z,20.70
2018-04-27T13:47:03.996Z,20.50
2018-04-27T13:49:32.293Z,20.50
2018-04-27T13:52:01.309Z,20.80
2018-04-27T13:54:29.563Z,20.80
2018-04-27T13:56:58.572Z,20.90
2018-04-27T13:59:26.829Z,20.90
2018-04-27T14:01:55.854Z,21.20
2018-04-27T14:04:24.116Z,21.20
2018-04-27T14:06:52.366Z,21.50
2018-04-27T14:09:21.389Z,21.60
2018-04-27T14:11:49.635Z,21.60
2018-04-27T14:14:18.652Z,21.50
2018-04-27T14:16:46.902Z,21.50
2018-04-27T14:19:15.930Z,21.20
2018-04-27T14:21:44.174Z,21.20
2018-04-27T14:24:13.189Z,21.70
2018-04-27T14:26:41.442Z,21.70
2018-04-27T14:29:10.464Z,21.40
2018-04-27T14:31:38.722Z,21.40
2018-04-27T14:34:07.734Z,21.60
2018-04-27T14:36:35.985Z,21.60
2018-04-27T14:39:05.022Z,22.00
2018-04-27T14:41:33.318Z,22.00
2018-04-27T14:44:01.577Z,21.80
2018-04-27T14:46:29.848Z,21.70
2018-04-27T14:48:58.117Z,22.00
2018-04-27T14:51:26.367Z,21.60
2018-04-27T14:53:55.378Z,21.00
2018-04-27T14:56:23.634Z,20.90
2018-04-27T14:58:52.646Z,21.00
2018-04-27T15:01:20.900Z,21.00
2018-04-27T15:03:49.152Z,20.70
2018-04-27T15:06:17.410Z,20.50
2018-04-27T15:08:45.655Z,20.60
2018-04-27T15:11:13.906Z,20.70
2018-04-27T15:13:42.158Z,20.40
2018-04-27T15:16:11.170Z,20.70
2018-04-27T15:18:40.190Z,21.00
2018-04-27T15:21:08.443Z,21.00
2018-04-27T15:23:36.720Z,20.50
2018-04-27T15:26:04.970Z,21.00
2018-04-27T15:28:33.225Z,21.10
2018-04-27T15:31:01.478Z,21.70
2018-04-27T15:33:29.733Z,22.00
2018-04-27T15:35:57.986Z,22.50
2018-04-27T15:38:26.244Z,22.20
2018-04-27T15:40:54.498Z,21.10
2018-04-27T15:43:22.759Z,20.80
2018-04-27T15:45:51.002Z,21.30
2018-04-27T15:48:19.290Z,21.90
2018-04-27T15:50:47.543Z,21.60
2018-04-27T15:53:16.653Z,21.30
2018-04-27T15:55:44.900Z,21.30
2018-04-27T15:58:13.914Z,21.40
2018-04-27T16:00:42.171Z,21.40
2018-04-27T16:03:11.193Z,21.00
2018-04-27T16:05:39.452Z,21.00
2018-04-27T16:08:08.473Z,20.70
2018-04-27T16:10:36.721Z,20.60
2018-04-27T16:16:08.629Z,20.70
2018-04-27T16:18:36.878Z,21.00
2018-04-27T16:21:05.133Z,21.20
2018-04-27T16:23:34.152Z,21.90
2018-04-27T16:26:02.406Z,21.90
2018-04-27T16:28:31.421Z,22.20
2018-04-27T16:30:59.686Z,22.20
2018-04-27T16:33:28.732Z,21.70
2018-04-27T16:35:56.983Z,21.70
2018-04-27T16:38:25.235Z,21.90
2018-04-27T16:40:54.261Z,21.80
2018-04-27T16:43:22.517Z,21.80
2018-04-27T16:45:50.771Z,21.90
2018-04-27T16:48:19.790Z,21.60
2018-04-27T16:50:48.046Z,21.60
2018-04-27T16:53:17.065Z,22.20
2018-04-27T16:55:45.315Z,22.20
2018-04-27T16:58:14.333Z,21.50
2018-04-27T17:00:42.587Z,21.50
2018-04-27T17:03:10.845Z,21.50
2018-04-27T17:05:39.109Z,22.20
2018-04-27T17:08:07.432Z,21.90
2018-04-27T17:10:35.684Z,21.80
2018-04-27T17:13:04.702Z,21.40
2018-04-27T17:15:32.960Z,21.40
2018-04-27T17:18:01.216Z,21.60
2018-04-27T17:20:30.233Z,21.10
2018-04-27T17:22:58.494Z,21.10
2018-04-27T17:25:27.510Z,20.00
2018-04-27T17:27:55.772Z,20.00
2018-04-27T17:30:24.786Z,19.50
2018-04-27T17:32:53.057Z,19.40
2018-04-27T17:35:21.315Z,19.50
2018-04-27T17:37:50.325Z,19.40
2018-04-27T17:40:18.597Z,19.40
2018-04-27T17:42:46.844Z,19.30
2018-04-27T17:45:15.862Z,18.90
2018-04-27T17:47:44.113Z,18.80
2018-04-27T17:50:13.139Z,18.80
2018-04-27T17:52:41.390Z,18.80
2018-04-27T17:55:10.416Z,18.60
2018-04-27T17:57:38.667Z,18.60
2018-04-27T18:00:07.698Z,18.50
2018-04-27T18:02:35.945Z,18.40
2018-04-27T18:05:04.197Z,18.40
2018-04-27T18:07:33.285Z,18.20
2018-04-27T18:10:01.480Z,18.20
2018-04-27T18:12:30.502Z,18.00
2018-04-27T18:14:58.866Z,18.00
2018-04-27T18:17:27.120Z,17.90
2018-04-27T18:19:56.144Z,17.40
2018-04-27T18:22:24.394Z,17.40
2018-04-27T18:24:53.416Z,16.90
2018-04-27T18:27:21.671Z,16.90
2018-04-27T18:29:49.924Z,16.80
2018-04-27T18:32:18.947Z,16.40
2018-04-27T18:34:47.194Z,16.40
2018-04-27T18:37:16.208Z,16.10
2018-04-27T18:39:44.464Z,16.00
2018-04-27T18:42:13.510Z,15.90
2018-04-27T18:44:41.762Z,15.80
2018-04-27T18:47:10.012Z,15.70
2018-04-27T18:49:39.031Z,15.60
2018-04-27T18:52:07.292Z,15.60
2018-04-27T18:54:35.545Z,15.70
2018-04-27T18:57:04.636Z,15.60
2018-04-27T18:59:33.667Z,15.50
2018-04-27T19:02:01.930Z,15.40
2018-04-27T19:04:30.245Z,15.30
2018-04-27T19:06:58.502Z,15.20
2018-04-27T19:09:26.758Z,15.20
2018-04-27T19:11:55.017Z,15.20
2018-04-27T19:14:24.108Z,15.00
2018-04-27T19:16:52.325Z,15.00
2018-04-27T19:19:20.586Z,14.90
2018-04-27T19:21:49.452Z,14.80
2018-04-27T19:24:18.478Z,14.70
2018-04-27T19:26:46.744Z,14.70
2018-04-27T19:29:14.993Z,14.60
2018-04-27T19:31:44.029Z,14.60
2018-04-27T19:34:12.276Z,14.50
2018-04-27T19:36:40.543Z,14.50
2018-04-27T19:39:09.566Z,14.40
2018-04-27T19:41:37.829Z,14.40
2018-04-27T19:44:06.108Z,14.50
2018-04-27T19:46:34.436Z,14.30
2018-04-27T19:49:02.704Z,14.30
2018-04-27T19:51:30.955Z,14.20
2018-04-27T19:53:59.221Z,14.10
2018-04-27T19:56:27.476Z,14.00
2018-04-27T19:58:55.767Z,14.30
2018-04-27T20:01:24.758Z,14.10
2018-04-27T20:03:53.025Z,14.10
2018-04-27T20:06:21.285Z,14.50
2018-04-27T20:08:50.316Z,14.10
2018-04-27T20:11:18.648Z,14.20
2018-04-27T20:13:46.874Z,14.00
2018-04-27T20:19:16.910Z,13.90
2018-04-27T20:21:45.162Z,14.00
2018-04-27T20:24:13.422Z,14.20
2018-04-27T20:26:42.445Z,14.40
2018-04-27T20:29:10.708Z,14.40
2018-04-27T20:31:39.000Z,14.40
2018-04-27T20:34:07.297Z,14.40
2018-04-27T20:36:35.547Z,14.30
2018-04-27T20:39:03.814Z,14.40
2018-04-27T20:41:32.085Z,14.40
2018-04-27T20:44:00.360Z,14.40
2018-04-27T20:46:28.633Z,14.50
2018-04-27T20:48:56.887Z,14.70
2018-04-27T20:51:25.146Z,14.70
2018-04-27T20:54:00.683Z,14.50
2018-04-27T20:56:30.397Z,14.50
2018-04-27T20:58:58.652Z,14.70
2018-04-27T21:01:26.919Z,14.40
2018-04-27T21:03:55.172Z,14.30
2018-04-27T21:06:23.430Z,14.40
2018-04-27T21:08:51.685Z,14.50
2018-04-27T21:11:19.945Z,14.70
2018-04-27T21:13:48.202Z,14.70
2018-04-27T21:16:16.471Z,14.50
2018-04-27T21:18:44.720Z,14.20
2018-04-27T21:21:12.989Z,13.90
2018-04-27T21:23:42.004Z,14.10
2018-04-27T21:26:11.665Z,14.00
2018-04-27T21:28:39.917Z,14.20
2018-04-27T21:31:08.173Z,14.20
2018-04-27T21:33:48.758Z,14.20
2018-04-27T21:36:17.024Z,14.10
2018-04-27T21:38:48.956Z,14.10
2018-04-27T21:44:42.510Z,14.20
2018-04-27T21:47:16.180Z,14.00
2018-04-27T21:49:45.152Z,14.00
2018-04-27T21:52:15.143Z,14.10
2018-04-27T21:54:43.402Z,14.30
2018-04-27T21:57:16.456Z,14.50
2018-04-27T22:02:59.371Z,14.50
2018-04-27T22:05:33.339Z,14.70
2018-04-27T22:08:02.480Z,14.70
2018-04-27T22:10:31.253Z,14.90
2018-04-27T22:12:59.721Z,14.90
2018-04-27T22:15:30.748Z,14.80
2018-04-27T22:18:01.651Z,14.70
2018-04-27T22:23:33.437Z,14.70
2018-04-27T22:29:00.433Z,14.60
2018-04-27T22:31:29.450Z,14.60
2018-04-27T22:34:09.222Z,14.50
2018-04-27T22:36:40.181Z,14.50
2018-04-27T22:43:03.173Z,14.20
2018-04-27T22:45:36.082Z,14.20
2018-04-27T22:48:21.737Z,14.10
2018-04-27T22:50:55.526Z,14.00
2018-04-27T22:53:24.377Z,14.00
2018-04-27T22:55:52.633Z,13.90
2018-04-27T22:58:20.895Z,13.90
2018-04-27T23:01:04.143Z,13.90
2018-04-27T23:03:34.841Z,13.90
2018-04-27T23:06:03.788Z,14.00
2018-04-27T23:08:32.042Z,13.90
2018-04-27T23:11:12.071Z,14.00
2018-04-27T23:13:43.814Z,14.00
2018-04-27T23:16:12.078Z,14.00
2018-04-27T23:18:43.203Z,14.00
2018-04-27T23:21:26.166Z,13.90
2018-04-27T23:23:55.190Z,13.30
2018-04-27T23:26:23.453Z,13.20
2018-04-27T23:28:52.483Z,13.10
2018-04-27T23:31:20.738Z,13.10
2018-04-27T23:33:48.993Z,13.10
2018-04-27T23:36:18.034Z,13.20
2018-04-27T23:38:46.289Z,13.10
2018-04-27T23:41:14.547Z,13.20
2018-04-27T23:43:42.799Z,13.10
2018-04-27T23:46:11.113Z,13.10
2018-04-27T23:48:40.092Z,13.10
2018-04-27T23:51:08.346Z,13.00
2018-04-27T23:53:38.085Z,13.00
2018-04-27T23:56:07.878Z,13.00
2018-04-27T23:58:37.497Z,13.10
